Zaanborg — PCKW — position and weather

sailwx.info

Track history (hours):
 
Tides and Currents Weather Stations Pressure Air Temp Water Temp Dewpoint Dewpoint Depression Visibility Wind Speed Wind Dir Waves Ship Positions

Zaanborg

Last reported at 2018-Feb-19 22:50 UTC. Time now 2018-Feb-24 02:33 UTC.
Position N 60°19' E 019°01'.

Length 118 m; draft 6 m.

Type: Cargo ship. MMSI: 244830818.

Date/timePositionNaut miles runAvg speedWind from/ knotsBaromVisibWave heightAir tempDewpointWater temp
2018-Feb-19 22:50N 60°19' E 019°01'412.2
2018-Feb-19 22:30N 60°15' E 019°03'611.9
2018-Feb-19 22:00N 60°09' E 019°08'612.2
2018-Feb-19 21:29N 60°04' E 019°16'612.3
2018-Feb-19 20:59N 59°60' E 019°24'612.2
2018-Feb-19 20:30N 59°55' E 019°32'612.1
2018-Feb-19 20:00N 59°51' E 019°40'712.2
2018-Feb-19 19:24N 59°45' E 019°49'23411.5
2018-Feb-18 23:03N 56°10' E 016°52'112.1
2018-Feb-18 23:00N 56°10' E 016°52'611.8
2018-Feb-18 22:30N 56°05' E 016°46'612.2
2018-Feb-18 22:00N 56°01' E 016°37'612.2
2018-Feb-18 21:30N 55°58' E 016°28'612.2
2018-Feb-18 21:00N 55°55' E 016°18'612.2
2018-Feb-18 20:30N 55°52' E 016°09'612.2
2018-Feb-18 20:00N 55°49' E 015°60'612.2
2018-Feb-18 19:30N 55°46' E 015°50'612.3
2018-Feb-18 19:00N 55°43' E 015°41'712.4
2018-Feb-18 18:28N 55°40' E 015°30'612.4
2018-Feb-18 18:00N 55°37' E 015°21'612.4
2018-Feb-18 17:30N 55°34' E 015°12'612.3
2018-Feb-18 17:00N 55°31' E 015°02'612.2
2018-Feb-18 16:30N 55°29' E 014°52'612.0
2018-Feb-18 16:00N 55°26' E 014°43'611.8
2018-Feb-18 15:30N 55°22' E 014°35'612.0
2018-Feb-18 15:00N 55°17' E 014°29'612.1
2018-Feb-18 14:30N 55°12' E 014°22'612.1
2018-Feb-18 13:59N 55°07' E 014°15'612.2
2018-Feb-18 13:30N 55°03' E 014°09'712.0
2018-Feb-18 12:53N 54°60' E 013°57'511.9
2018-Feb-18 12:29N 54°58' E 013°49'4111.9
2018-Feb-18 09:04N 54°43' E 012°43'111.9
2018-Feb-18 09:00N 54°43' E 012°42'2011.7
2018-Feb-18 07:16N 54°29' E 012°16'311.7
2018-Feb-18 07:00N 54°27' E 012°13'611.2
2018-Feb-18 06:30N 54°24' E 012°05'2311.9
2018-Feb-18 04:35N 54°30' E 011°27'111.9
2018-Feb-18 04:30N 54°30' E 011°25'611.6
2018-Feb-18 04:00N 54°33' E 011°17'611.3
2018-Feb-18 03:30N 54°35' E 011°08'612.0
2018-Feb-18 03:00N 54°35' E 010°57'611.8
2018-Feb-18 02:30N 54°34' E 010°47'611.7
2018-Feb-18 02:00N 54°33' E 010°37'1311.4
2018-Feb-18 00:52N 54°29' E 010°16'13 2.6
2018-Feb-17 19:47N 54°21' E 009°58'3 8.3
2018-Feb-17 19:27N 54°21' E 009°54'4 7.9
2018-Feb-17 19:00N 54°22' E 009°48'4 8.1
2018-Feb-17 18:30N 54°19' E 009°43'4 7.4
2018-Feb-17 18:00N 54°16' E 009°38'2 3.4
2018-Feb-17 17:30N 54°15' E 009°37'3 6.5
2018-Feb-17 17:00N 54°12' E 009°34'4 7.8
2018-Feb-17 16:30N 54°11' E 009°28'4 7.6
2018-Feb-17 16:00N 54°09' E 009°22'1 1.8
2018-Feb-17 15:30N 54°08' E 009°21'4 8.0
2018-Feb-17 15:00N 54°05' E 009°19'4 8.1
2018-Feb-17 14:30N 54°01' E 009°18'4 8.6
2018-Feb-17 14:00N 53°57' E 009°14'4 8.5
2018-Feb-17 13:30N 53°54' E 009°09'0 0.6
2018-Feb-17 13:00N 53°54' E 009°09'1 1.4
2018-Feb-17 12:30N 53°53' E 009°09'1 1.7
2018-Feb-17 12:00N 53°53' E 009°11'0 0.0
2018-Feb-17 11:30N 53°53' E 009°11'0 0.0
2018-Feb-17 11:00N 53°53' E 009°11'0 0.0
2018-Feb-17 10:22N 53°53' E 009°11'0 0.0
2018-Feb-17 09:58N 53°53' E 009°11'0 0.0
2018-Feb-17 09:27N 53°53' E 009°11'0 0.0
2018-Feb-17 08:59N 53°53' E 009°11'0 0.0
2018-Feb-17 08:29N 53°53' E 009°11'0 0.0
2018-Feb-17 07:59N 53°53' E 009°11'0 0.0
2018-Feb-17 07:24N 53°53' E 009°11'0 0.0
2018-Feb-17 06:55N 53°53' E 009°11'0 0.0
2018-Feb-17 06:30N 53°53' E 009°11'0 0.0
2018-Feb-17 05:59N 53°53' E 009°11'0 0.0
2018-Feb-17 05:28N 53°53' E 009°11'0 0.0
2018-Feb-17 05:01N 53°53' E 009°11'0 0.0
2018-Feb-17 04:30N 53°53' E 009°11'0 0.0
2018-Feb-17 03:59N 53°53' E 009°11'0 0.0
2018-Feb-17 03:30N 53°53' E 009°11'0 0.0
2018-Feb-17 02:59N 53°53' E 009°11'0 0.0
2018-Feb-17 02:29N 53°53' E 009°11'0 0.0
2018-Feb-17 01:59N 53°53' E 009°11'0 0.0
2018-Feb-17 01:29N 53°53' E 009°11'0 0.0
2018-Feb-17 01:00N 53°53' E 009°11'0 0.0
2018-Feb-17 00:29N 53°53' E 009°11'0 0.0
2018-Feb-17 00:00N 53°53' E 009°11'0 0.0
2018-Feb-16 23:27N 53°53' E 009°11'0 0.0
2018-Feb-16 22:55N 53°53' E 009°11'0 0.0
2018-Feb-16 22:22N 53°53' E 009°11'0 0.0
2018-Feb-16 21:58N 53°53' E 009°11'0 0.0
2018-Feb-16 21:28N 53°53' E 009°11'0 0.0
2018-Feb-16 20:36N 53°53' E 009°11'0 0.0
2018-Feb-16 20:29N 53°53' E 009°11'0 0.0
2018-Feb-16 19:58N 53°53' E 009°11'0 0.0
2018-Feb-16 19:31N 53°53' E 009°11'0 0.0
2018-Feb-16 19:00N 53°53' E 009°11'0 0.0
2018-Feb-16 18:28N 53°53' E 009°11'0 0.0
2018-Feb-16 18:00N 53°53' E 009°11'0 0.0
2018-Feb-16 17:27N 53°53' E 009°11'0 0.0
2018-Feb-16 16:57N 53°53' E 009°11'0 0.0
2018-Feb-16 16:30N 53°53' E 009°11'0 0.0
2018-Feb-16 16:00N 53°53' E 009°11'0 0.0
2018-Feb-16 15:27N 53°53' E 009°11'0 0.0
2018-Feb-16 14:59N 53°53' E 009°11'0 0.0
2018-Feb-16 14:29N 53°53' E 009°11'0 0.0
2018-Feb-16 13:59N 53°53' E 009°11'0 0.0
2018-Feb-16 13:30N 53°53' E 009°11'0 0.0
2018-Feb-16 13:00N 53°53' E 009°11'0 0.0
2018-Feb-16 12:29N 53°53' E 009°11'0 0.0
2018-Feb-16 11:58N 53°53' E 009°11'0 0.0
2018-Feb-16 11:26N 53°53' E 009°11'0 0.0
2018-Feb-16 11:00N 53°53' E 009°11'0 0.0
2018-Feb-16 10:30N 53°53' E 009°11'0 0.0
2018-Feb-16 09:58N 53°53' E 009°11'0 0.2
2018-Feb-16 09:31N 53°53' E 009°11'4 8.2
2018-Feb-16 09:00N 53°52' E 009°04'611.1
2018-Feb-16 08:31N 53°51' E 008°55'510.2
2018-Feb-16 08:01N 53°51' E 008°46'5 9.1
2018-Feb-16 07:31N 53°54' E 008°41'5 9.0
2018-Feb-16 07:00N 53°58' E 008°36'611.5
2018-Feb-16 06:30N 53°59' E 008°27'611.9
2018-Feb-16 06:00N 53°60' E 008°17'612.7
2018-Feb-16 05:30N 53°59' E 008°06'4 7.7
2018-Feb-16 05:00N 54°02' E 008°11'1 1.6
2018-Feb-16 04:30N 54°02' E 008°12'0 0.1
2018-Feb-16 03:57N 54°02' E 008°12'0 0.0
2018-Feb-16 03:15N 54°02' E 008°12'0 0.0
2018-Feb-16 02:56N 54°02' E 008°12'0 0.0
2018-Feb-16 02:28N 54°02' E 008°12'0 0.0
2018-Feb-16 01:59N 54°02' E 008°12'0 0.0
2018-Feb-16 01:16N 54°02' E 008°12'0 0.0
2018-Feb-16 00:58N 54°02' E 008°12'0 0.0
2018-Feb-16 00:20N 54°02' E 008°12'0 0.0
2018-Feb-15 23:59N 54°02' E 008°12'0 0.0
2018-Feb-15 23:17N 54°02' E 008°12'0 0.0
2018-Feb-15 22:56N 54°02' E 008°12'0 0.0
2018-Feb-15 22:29N 54°02' E 008°12'0 0.0
2018-Feb-15 21:51N 54°02' E 008°12'0 0.0
2018-Feb-15 21:30N 54°02' E 008°12'0 0.0
2018-Feb-15 21:00N 54°02' E 008°12'0 0.0
2018-Feb-15 20:27N 54°02' E 008°12'0 0.0
2018-Feb-15 19:58N 54°02' E 008°12'0 0.0
2018-Feb-15 19:30N 54°02' E 008°12'0 0.0
2018-Feb-15 18:51N 54°02' E 008°12'0 0.0
2018-Feb-15 18:31N 54°02' E 008°12'0 0.0
2018-Feb-15 17:58N 54°02' E 008°12'0 0.1
2018-Feb-15 17:28N 54°03' E 008°12'0 0.1
2018-Feb-15 16:49N 54°03' E 008°12'0 0.0
2018-Feb-15 08:19N 54°03' E 008°12'0 0.0
2018-Feb-15 06:25N 54°03' E 008°12'0 0.0
2018-Feb-15 03:56N 54°02' E 008°12'0 0.0
2018-Feb-15 03:26N 54°02' E 008°12'0 0.0
2018-Feb-15 02:59N 54°02' E 008°12'0 0.0
2018-Feb-15 02:26N 54°02' E 008°12'0 0.0
2018-Feb-15 01:59N 54°02' E 008°12'0 0.0
2018-Feb-15 00:42N 54°02' E 008°12'0 0.1
2018-Feb-15 00:27N 54°02' E 008°12'0 0.0
2018-Feb-14 23:45N 54°02' E 008°12'0 0.0
2018-Feb-14 23:27N 54°02' E 008°12'0 0.0
2018-Feb-14 23:00N 54°02' E 008°12'0 0.0
2018-Feb-14 22:30N 54°03' E 008°12'0 0.0
2018-Feb-14 21:54N 54°03' E 008°12'0 0.0
2018-Feb-14 17:15N 54°02' E 008°12'0 0.0
2018-Feb-14 12:53N 54°02' E 008°12'0 0.0
2018-Feb-14 08:25N 54°02' E 008°12'0 0.0
2018-Feb-14 02:51N 54°02' E 008°12'0 0.0
2018-Feb-14 02:30N 54°02' E 008°12'0 0.0
2018-Feb-14 02:00N 54°02' E 008°12'0 0.0
2018-Feb-14 01:22N 54°02' E 008°12'0 0.0
2018-Feb-13 22:30N 54°02' E 008°12'0 0.0
2018-Feb-13 21:39N 54°02' E 008°12'0 0.0
2018-Feb-13 21:18N 54°02' E 008°12'0 0.0
2018-Feb-13 20:57N 54°02' E 008°12'0 0.0
2018-Feb-13 20:29N 54°02' E 008°12'0 0.0
2018-Feb-13 18:02N 54°02' E 008°12'0 0.0
2018-Feb-13 16:55N 54°02' E 008°12'0 0.0
2018-Feb-13 15:46N 54°02' E 008°12'0 0.0
2018-Feb-13 15:30N 54°02' E 008°12'0 0.0
2018-Feb-13 14:49N 54°02' E 008°12'0 0.0
2018-Feb-13 14:28N 54°02' E 008°12'0 0.0
2018-Feb-13 13:55N 54°02' E 008°12'0 0.0
2018-Feb-13 13:27N 54°02' E 008°12'0 0.0
2018-Feb-13 12:00N 54°02' E 008°12'0 0.0
2018-Feb-13 08:42N 54°02' E 008°12'0 1.3
2018-Feb-13 08:29N 54°02' E 008°11'510.9
2018-Feb-13 08:00N 54°01' E 008°03'10212.1
2018-Feb-12 23:39N 53°32' E 005°18'410.9
2018-Feb-12 23:17N 53°31' E 005°12'310.9
2018-Feb-12 23:00N 53°30' E 005°07'610.9
2018-Feb-12 22:29N 53°27' E 004°59'611.0
2018-Feb-12 21:59N 53°25' E 004°50'610.6
2018-Feb-12 21:27N 53°22' E 004°42'610.6
2018-Feb-12 20:52N 53°16' E 004°38'410.8
2018-Feb-12 20:30N 53°13' E 004°35'510.9
2018-Feb-12 20:00N 53°08' E 004°30'511.0
2018-Feb-12 19:30N 53°04' E 004°24'611.1
2018-Feb-12 19:00N 52°59' E 004°19'510.5
2018-Feb-12 18:30N 52°55' E 004°15'610.6
2018-Feb-12 17:54N 52°49' E 004°10'411.0
2018-Feb-12 17:31N 52°46' E 004°06'611.2
2018-Feb-12 17:00N 52°41' E 003°59'611.3
2018-Feb-12 16:27N 52°37' E 003°53'511.5
2018-Feb-12 16:00N 52°33' E 003°47'611.6
2018-Feb-12 15:29N 52°28' E 003°41'611.5
2018-Feb-12 15:00N 52°23' E 003°38'611.7
2018-Feb-12 14:30N 52°17' E 003°34'31 2.2
2018-Feb-12 00:05N 51°47' E 003°20'0 0.1
2018-Feb-11 23:59N 51°47' E 003°20'0 0.0
2018-Feb-11 23:24N 51°47' E 003°20'0 0.0
2018-Feb-11 22:55N 51°47' E 003°20'0 0.0
2018-Feb-11 22:17N 51°47' E 003°20'0 0.0
2018-Feb-11 14:56N 51°47' E 003°19'0 0.0
2018-Feb-11 09:57N 51°47' E 003°19'1 0.3
2018-Feb-11 06:16N 51°47' E 003°21'0 0.0
2018-Feb-11 05:57N 51°47' E 003°21'0 0.0
2018-Feb-11 05:21N 51°47' E 003°21'0 0.0
2018-Feb-11 04:56N 51°47' E 003°21'0 0.1
2018-Feb-11 02:09N 51°47' E 003°21'0 0.0
2018-Feb-11 01:49N 51°47' E 003°21'0 0.0
2018-Feb-10 08:45N 51°47' E 003°21'0 0.0
2018-Feb-10 02:34N 51°47' E 003°21'0 0.1
2018-Feb-10 02:28N 51°47' E 003°21'0 0.1
2018-Feb-10 01:58N 51°47' E 003°21'0 0.0
2018-Feb-10 01:28N 51°47' E 003°21'0 0.1
2018-Feb-10 00:52N 51°47' E 003°21'0 0.1
2018-Feb-10 00:28N 51°47' E 003°21'0 0.0
2018-Feb-09 23:58N 51°47' E 003°21'0 0.1
2018-Feb-09 23:30N 51°47' E 003°21'0 0.1
2018-Feb-09 22:54N 51°47' E 003°21'  
Track history (hours):
 
Tides and Currents Weather Stations Pressure Air Temp Water Temp Dewpoint Dewpoint Depression Visibility Wind Speed Wind Dir Waves Ship Positions

Zaanborg

Last reported at 2018-Feb-19 22:50 UTC. Time now 2018-Feb-24 02:33 UTC.
Position N 60°19' E 019°01'.

Length 118 m; draft 6 m.

Type: Cargo ship. MMSI: 244830818.

Date/timePositionNaut miles runAvg speedWind from/ knotsBaromVisibWave heightAir tempDewpointWater temp
2018-Feb-19 22:50N 60°19' E 019°01'412.2
2018-Feb-19 22:30N 60°15' E 019°03'611.9
2018-Feb-19 22:00N 60°09' E 019°08'612.2
2018-Feb-19 21:29N 60°04' E 019°16'612.3
2018-Feb-19 20:59N 59°60' E 019°24'612.2
2018-Feb-19 20:30N 59°55' E 019°32'612.1
2018-Feb-19 20:00N 59°51' E 019°40'712.2
2018-Feb-19 19:24N 59°45' E 019°49'23411.5
2018-Feb-18 23:03N 56°10' E 016°52'112.1
2018-Feb-18 23:00N 56°10' E 016°52'611.8
2018-Feb-18 22:30N 56°05' E 016°46'612.2
2018-Feb-18 22:00N 56°01' E 016°37'612.2
2018-Feb-18 21:30N 55°58' E 016°28'612.2
2018-Feb-18 21:00N 55°55' E 016°18'612.2
2018-Feb-18 20:30N 55°52' E 016°09'612.2
2018-Feb-18 20:00N 55°49' E 015°60'612.2
2018-Feb-18 19:30N 55°46' E 015°50'612.3
2018-Feb-18 19:00N 55°43' E 015°41'712.4
2018-Feb-18 18:28N 55°40' E 015°30'612.4
2018-Feb-18 18:00N 55°37' E 015°21'612.4
2018-Feb-18 17:30N 55°34' E 015°12'612.3
2018-Feb-18 17:00N 55°31' E 015°02'612.2
2018-Feb-18 16:30N 55°29' E 014°52'612.0
2018-Feb-18 16:00N 55°26' E 014°43'611.8
2018-Feb-18 15:30N 55°22' E 014°35'612.0
2018-Feb-18 15:00N 55°17' E 014°29'612.1
2018-Feb-18 14:30N 55°12' E 014°22'612.1
2018-Feb-18 13:59N 55°07' E 014°15'612.2
2018-Feb-18 13:30N 55°03' E 014°09'712.0
2018-Feb-18 12:53N 54°60' E 013°57'511.9
2018-Feb-18 12:29N 54°58' E 013°49'4111.9
2018-Feb-18 09:04N 54°43' E 012°43'111.9
2018-Feb-18 09:00N 54°43' E 012°42'2011.7
2018-Feb-18 07:16N 54°29' E 012°16'311.7
2018-Feb-18 07:00N 54°27' E 012°13'611.2
2018-Feb-18 06:30N 54°24' E 012°05'2311.9
2018-Feb-18 04:35N 54°30' E 011°27'111.9
2018-Feb-18 04:30N 54°30' E 011°25'611.6
2018-Feb-18 04:00N 54°33' E 011°17'611.3
2018-Feb-18 03:30N 54°35' E 011°08'612.0
2018-Feb-18 03:00N 54°35' E 010°57'611.8
2018-Feb-18 02:30N 54°34' E 010°47'611.7
2018-Feb-18 02:00N 54°33' E 010°37'1311.4
2018-Feb-18 00:52N 54°29' E 010°16'13 2.6
2018-Feb-17 19:47N 54°21' E 009°58'3 8.3
2018-Feb-17 19:27N 54°21' E 009°54'4 7.9
2018-Feb-17 19:00N 54°22' E 009°48'4 8.1
2018-Feb-17 18:30N 54°19' E 009°43'4 7.4
2018-Feb-17 18:00N 54°16' E 009°38'2 3.4
2018-Feb-17 17:30N 54°15' E 009°37'3 6.5
2018-Feb-17 17:00N 54°12' E 009°34'4 7.8
2018-Feb-17 16:30N 54°11' E 009°28'4 7.6
2018-Feb-17 16:00N 54°09' E 009°22'1 1.8
2018-Feb-17 15:30N 54°08' E 009°21'4 8.0
2018-Feb-17 15:00N 54°05' E 009°19'4 8.1
2018-Feb-17 14:30N 54°01' E 009°18'4 8.6
2018-Feb-17 14:00N 53°57' E 009°14'4 8.5
2018-Feb-17 13:30N 53°54' E 009°09'0 0.6
2018-Feb-17 13:00N 53°54' E 009°09'1 1.4
2018-Feb-17 12:30N 53°53' E 009°09'1 1.7
2018-Feb-17 12:00N 53°53' E 009°11'0 0.0
2018-Feb-17 11:30N 53°53' E 009°11'0 0.0
2018-Feb-17 11:00N 53°53' E 009°11'0 0.0
2018-Feb-17 10:22N 53°53' E 009°11'0 0.0
2018-Feb-17 09:58N 53°53' E 009°11'0 0.0
2018-Feb-17 09:27N 53°53' E 009°11'0 0.0
2018-Feb-17 08:59N 53°53' E 009°11'0 0.0
2018-Feb-17 08:29N 53°53' E 009°11'0 0.0
2018-Feb-17 07:59N 53°53' E 009°11'0 0.0
2018-Feb-17 07:24N 53°53' E 009°11'0 0.0
2018-Feb-17 06:55N 53°53' E 009°11'0 0.0
2018-Feb-17 06:30N 53°53' E 009°11'0 0.0
2018-Feb-17 05:59N 53°53' E 009°11'0 0.0
2018-Feb-17 05:28N 53°53' E 009°11'0 0.0
2018-Feb-17 05:01N 53°53' E 009°11'0 0.0
2018-Feb-17 04:30N 53°53' E 009°11'0 0.0
2018-Feb-17 03:59N 53°53' E 009°11'0 0.0
2018-Feb-17 03:30N 53°53' E 009°11'0 0.0
2018-Feb-17 02:59N 53°53' E 009°11'0 0.0
2018-Feb-17 02:29N 53°53' E 009°11'0 0.0
2018-Feb-17 01:59N 53°53' E 009°11'0 0.0
2018-Feb-17 01:29N 53°53' E 009°11'0 0.0
2018-Feb-17 01:00N 53°53' E 009°11'0 0.0
2018-Feb-17 00:29N 53°53' E 009°11'0 0.0
2018-Feb-17 00:00N 53°53' E 009°11'0 0.0
2018-Feb-16 23:27N 53°53' E 009°11'0 0.0
2018-Feb-16 22:55N 53°53' E 009°11'0 0.0
2018-Feb-16 22:22N 53°53' E 009°11'0 0.0
2018-Feb-16 21:58N 53°53' E 009°11'0 0.0
2018-Feb-16 21:28N 53°53' E 009°11'0 0.0
2018-Feb-16 20:36N 53°53' E 009°11'0 0.0
2018-Feb-16 20:29N 53°53' E 009°11'0 0.0
2018-Feb-16 19:58N 53°53' E 009°11'0 0.0
2018-Feb-16 19:31N 53°53' E 009°11'0 0.0
2018-Feb-16 19:00N 53°53' E 009°11'0 0.0
2018-Feb-16 18:28N 53°53' E 009°11'0 0.0
2018-Feb-16 18:00N 53°53' E 009°11'0 0.0
2018-Feb-16 17:27N 53°53' E 009°11'0 0.0
2018-Feb-16 16:57N 53°53' E 009°11'0 0.0
2018-Feb-16 16:30N 53°53' E 009°11'0 0.0
2018-Feb-16 16:00N 53°53' E 009°11'0 0.0
2018-Feb-16 15:27N 53°53' E 009°11'0 0.0
2018-Feb-16 14:59N 53°53' E 009°11'0 0.0
2018-Feb-16 14:29N 53°53' E 009°11'0 0.0
2018-Feb-16 13:59N 53°53' E 009°11'0 0.0
2018-Feb-16 13:30N 53°53' E 009°11'0 0.0
2018-Feb-16 13:00N 53°53' E 009°11'0 0.0
2018-Feb-16 12:29N 53°53' E 009°11'0 0.0
2018-Feb-16 11:58N 53°53' E 009°11'0 0.0
2018-Feb-16 11:26N 53°53' E 009°11'0 0.0
2018-Feb-16 11:00N 53°53' E 009°11'0 0.0
2018-Feb-16 10:30N 53°53' E 009°11'0 0.0
2018-Feb-16 09:58N 53°53' E 009°11'0 0.2
2018-Feb-16 09:31N 53°53' E 009°11'4 8.2
2018-Feb-16 09:00N 53°52' E 009°04'611.1
2018-Feb-16 08:31N 53°51' E 008°55'510.2
2018-Feb-16 08:01N 53°51' E 008°46'5 9.1
2018-Feb-16 07:31N 53°54' E 008°41'5 9.0
2018-Feb-16 07:00N 53°58' E 008°36'611.5
2018-Feb-16 06:30N 53°59' E 008°27'611.9
2018-Feb-16 06:00N 53°60' E 008°17'612.7
2018-Feb-16 05:30N 53°59' E 008°06'4 7.7
2018-Feb-16 05:00N 54°02' E 008°11'1 1.6
2018-Feb-16 04:30N 54°02' E 008°12'0 0.1
2018-Feb-16 03:57N 54°02' E 008°12'0 0.0
2018-Feb-16 03:15N 54°02' E 008°12'0 0.0
2018-Feb-16 02:56N 54°02' E 008°12'0 0.0
2018-Feb-16 02:28N 54°02' E 008°12'0 0.0
2018-Feb-16 01:59N 54°02' E 008°12'0 0.0
2018-Feb-16 01:16N 54°02' E 008°12'0 0.0
2018-Feb-16 00:58N 54°02' E 008°12'0 0.0
2018-Feb-16 00:20N 54°02' E 008°12'0 0.0
2018-Feb-15 23:59N 54°02' E 008°12'0 0.0
2018-Feb-15 23:17N 54°02' E 008°12'0 0.0
2018-Feb-15 22:56N 54°02' E 008°12'0 0.0
2018-Feb-15 22:29N 54°02' E 008°12'0 0.0
2018-Feb-15 21:51N 54°02' E 008°12'0 0.0
2018-Feb-15 21:30N 54°02' E 008°12'0 0.0
2018-Feb-15 21:00N 54°02' E 008°12'0 0.0
2018-Feb-15 20:27N 54°02' E 008°12'0 0.0
2018-Feb-15 19:58N 54°02' E 008°12'0 0.0
2018-Feb-15 19:30N 54°02' E 008°12'0 0.0
2018-Feb-15 18:51N 54°02' E 008°12'0 0.0
2018-Feb-15 18:31N 54°02' E 008°12'0 0.0
2018-Feb-15 17:58N 54°02' E 008°12'0 0.1
2018-Feb-15 17:28N 54°03' E 008°12'0 0.1
2018-Feb-15 16:49N 54°03' E 008°12'0 0.0
2018-Feb-15 08:19N 54°03' E 008°12'0 0.0
2018-Feb-15 06:25N 54°03' E 008°12'0 0.0
2018-Feb-15 03:56N 54°02' E 008°12'0 0.0
2018-Feb-15 03:26N 54°02' E 008°12'0 0.0
2018-Feb-15 02:59N 54°02' E 008°12'0 0.0
2018-Feb-15 02:26N 54°02' E 008°12'0 0.0
2018-Feb-15 01:59N 54°02' E 008°12'0 0.0
2018-Feb-15 00:42N 54°02' E 008°12'0 0.1
2018-Feb-15 00:27N 54°02' E 008°12'0 0.0
2018-Feb-14 23:45N 54°02' E 008°12'0 0.0
2018-Feb-14 23:27N 54°02' E 008°12'0 0.0
2018-Feb-14 23:00N 54°02' E 008°12'0 0.0
2018-Feb-14 22:30N 54°03' E 008°12'0 0.0
2018-Feb-14 21:54N 54°03' E 008°12'0 0.0
2018-Feb-14 17:15N 54°02' E 008°12'0 0.0
2018-Feb-14 12:53N 54°02' E 008°12'0 0.0
2018-Feb-14 08:25N 54°02' E 008°12'0 0.0
2018-Feb-14 02:51N 54°02' E 008°12'0 0.0
2018-Feb-14 02:30N 54°02' E 008°12'0 0.0
2018-Feb-14 02:00N 54°02' E 008°12'0 0.0
2018-Feb-14 01:22N 54°02' E 008°12'0 0.0
2018-Feb-13 22:30N 54°02' E 008°12'0 0.0
2018-Feb-13 21:39N 54°02' E 008°12'0 0.0
2018-Feb-13 21:18N 54°02' E 008°12'0 0.0
2018-Feb-13 20:57N 54°02' E 008°12'0 0.0
2018-Feb-13 20:29N 54°02' E 008°12'0 0.0
2018-Feb-13 18:02N 54°02' E 008°12'0 0.0
2018-Feb-13 16:55N 54°02' E 008°12'0 0.0
2018-Feb-13 15:46N 54°02' E 008°12'0 0.0
2018-Feb-13 15:30N 54°02' E 008°12'0 0.0
2018-Feb-13 14:49N 54°02' E 008°12'0 0.0
2018-Feb-13 14:28N 54°02' E 008°12'0 0.0
2018-Feb-13 13:55N 54°02' E 008°12'0 0.0
2018-Feb-13 13:27N 54°02' E 008°12'0 0.0
2018-Feb-13 12:00N 54°02' E 008°12'0 0.0
2018-Feb-13 08:42N 54°02' E 008°12'0 1.3
2018-Feb-13 08:29N 54°02' E 008°11'510.9
2018-Feb-13 08:00N 54°01' E 008°03'10212.1
2018-Feb-12 23:39N 53°32' E 005°18'410.9
2018-Feb-12 23:17N 53°31' E 005°12'310.9
2018-Feb-12 23:00N 53°30' E 005°07'610.9
2018-Feb-12 22:29N 53°27' E 004°59'611.0
2018-Feb-12 21:59N 53°25' E 004°50'610.6
2018-Feb-12 21:27N 53°22' E 004°42'610.6
2018-Feb-12 20:52N 53°16' E 004°38'410.8
2018-Feb-12 20:30N 53°13' E 004°35'510.9
2018-Feb-12 20:00N 53°08' E 004°30'511.0
2018-Feb-12 19:30N 53°04' E 004°24'611.1
2018-Feb-12 19:00N 52°59' E 004°19'510.5
2018-Feb-12 18:30N 52°55' E 004°15'610.6
2018-Feb-12 17:54N 52°49' E 004°10'411.0
2018-Feb-12 17:31N 52°46' E 004°06'611.2
2018-Feb-12 17:00N 52°41' E 003°59'611.3
2018-Feb-12 16:27N 52°37' E 003°53'511.5
2018-Feb-12 16:00N 52°33' E 003°47'611.6
2018-Feb-12 15:29N 52°28' E 003°41'611.5
2018-Feb-12 15:00N 52°23' E 003°38'611.7
2018-Feb-12 14:30N 52°17' E 003°34'31 2.2
2018-Feb-12 00:05N 51°47' E 003°20'0 0.1
2018-Feb-11 23:59N 51°47' E 003°20'0 0.0
2018-Feb-11 23:24N 51°47' E 003°20'0 0.0
2018-Feb-11 22:55N 51°47' E 003°20'0 0.0
2018-Feb-11 22:17N 51°47' E 003°20'0 0.0
2018-Feb-11 14:56N 51°47' E 003°19'0 0.0
2018-Feb-11 09:57N 51°47' E 003°19'1 0.3
2018-Feb-11 06:16N 51°47' E 003°21'0 0.0
2018-Feb-11 05:57N 51°47' E 003°21'0 0.0
2018-Feb-11 05:21N 51°47' E 003°21'0 0.0
2018-Feb-11 04:56N 51°47' E 003°21'0 0.1
2018-Feb-11 02:09N 51°47' E 003°21'0 0.0
2018-Feb-11 01:49N 51°47' E 003°21'0 0.0
2018-Feb-10 08:45N 51°47' E 003°21'0 0.0
2018-Feb-10 02:34N 51°47' E 003°21'0 0.1
2018-Feb-10 02:28N 51°47' E 003°21'0 0.1
2018-Feb-10 01:58N 51°47' E 003°21'0 0.0
2018-Feb-10 01:28N 51°47' E 003°21'0 0.1
2018-Feb-10 00:52N 51°47' E 003°21'0 0.1
2018-Feb-10 00:28N 51°47' E 003°21'0 0.0
2018-Feb-09 23:58N 51°47' E 003°21'0 0.1
2018-Feb-09 23:30N 51°47' E 003°21'0 0.1
2018-Feb-09 22:54N 51°47' E 003°21'  

Dump ship's entire track history